Time;durP1;ratioP1;P1;durP2;ratioP2;P2;SDS_P1;SDS_P2;PMS_P1;PMS_P2;Temp;Humidity;BMP_temperature;BMP_pressure;BME280_temperature;BME280_humidity;BME280_pressure;Samples;Min_cycle;Max_cycle;Signal;HPM_P1;HPM_P2
2022/06/28 00:00:47;;;;;;;7.78;1.73;;;;;;;13.65;92.92;101978.66;4993205;28;20170;-36
2022/06/28 00:03:12;;;;;;;8.95;2.13;;;;;;;13.69;93.54;101980.72;4992568;28;20062;-38
2022/06/28 00:05:37;;;;;;;10.15;1.95;;;;;;;13.78;92.69;101973.63;4992999;28;20106;-38
2022/06/28 00:08:04;;;;;;;7.80;1.92;;;;;;;13.79;92.29;101977.06;4994237;28;20066;-35
2022/06/28 00:10:29;;;;;;;6.22;1.80;;;;;;;13.85;92.04;101979.75;4994099;28;20061;-36
2022/06/28 00:12:54;;;;;;;8.18;2.13;;;;;;;13.86;91.75;101986.53;4993993;28;20377;-34
2022/06/28 00:18:04;;;;;;;8.82;1.90;;;;;;;13.93;90.71;101981.47;4993910;28;20037;-37
2022/06/28 00:20:29;;;;;;;7.70;1.80;;;;;;;13.88;91.70;101975.97;4994119;28;20381;-36
2022/06/28 00:22:54;;;;;;;10.30;1.90;;;;;;;13.95;91.45;101976.88;4994062;28;20036;-35
2022/06/28 00:25:20;;;;;;;8.23;1.83;;;;;;;13.91;91.63;101980.81;4994097;28;20036;-35
2022/06/28 00:27:45;;;;;;;9.65;1.90;;;;;;;14.03;91.86;101983.78;4994355;28;20128;-35
2022/06/28 00:30:11;;;;;;;6.53;1.95;;;;;;;13.99;92.33;101981.53;4994036;28;20038;-37
2022/06/28 00:32:37;;;;;;;10.32;1.85;;;;;;;14.03;91.87;101979.38;4993217;28;20026;-36
2022/06/28 00:35:03;;;;;;;9.23;1.95;;;;;;;13.99;92.00;101971.13;4994019;28;20109;-36
2022/06/28 00:37:30;;;;;;;10.05;2.13;;;;;;;14.00;92.66;101972.75;4993608;28;20027;-38
2022/06/28 00:39:56;;;;;;;11.02;2.20;;;;;;;14.11;92.35;101983.69;4992467;28;20458;-35
2022/06/28 00:42:22;;;;;;;6.82;1.40;;;;;;;14.02;93.02;101969.97;4993660;28;20037;-37
2022/06/28 00:44:47;;;;;;;10.80;1.75;;;;;;;14.09;93.25;101977.84;4993618;28;20036;-36
2022/06/28 00:47:14;;;;;;;7.38;1.98;;;;;;;14.06;93.53;101968.63;4993580;28;20026;-36
2022/06/28 00:49:40;;;;;;;8.85;1.88;;;;;;;14.02;93.90;101979.56;4993435;28;20050;-36
2022/06/28 00:52:07;;;;;;;12.10;2.03;;;;;;;13.95;94.29;101982.91;4993443;28;20042;-36
2022/06/28 00:54:32;;;;;;;9.27;2.20;;;;;;;13.80;94.64;101976.06;4992586;28;20027;-36
2022/06/28 00:56:59;;;;;;;7.70;1.98;;;;;;;13.98;94.70;101984.31;4993794;28;20152;-37
2022/06/28 00:59:24;;;;;;;6.63;2.10;;;;;;;13.93;94.38;101984.06;4993778;28;20058;-36
2022/06/28 01:01:50;;;;;;;12.43;2.00;;;;;;;13.85;95.13;101986.75;4993525;28;20057;-35
2022/06/28 01:04:15;;;;;;;8.32;1.65;;;;;;;13.85;94.77;101986.75;4993440;28;20053;-37
2022/06/28 01:06:42;;;;;;;9.77;1.75;;;;;;;13.91;94.35;101988.63;4993435;28;20029;-37
2022/06/28 01:09:07;;;;;;;11.50;2.22;;;;;;;13.94;94.63;101991.66;4994637;28;20030;-37
2022/06/28 01:11:33;;;;;;;7.90;1.60;;;;;;;13.94;94.39;101994.25;4996884;28;20516;-37
2022/06/28 01:14:03;;;;;;;6.43;1.67;;;;;;;13.90;94.52;101989.63;4996930;28;20026;-36
2022/06/28 01:16:29;;;;;;;11.68;2.10;;;;;;;13.89;94.77;101993.19;4996799;28;20049;-36
2022/06/28 01:18:55;;;;;;;13.27;1.63;;;;;;;13.86;94.40;101989.16;4997279;28;20107;-35
2022/06/28 01:21:23;;;;;;;7.40;1.88;;;;;;;13.72;94.75;101987.34;4996792;28;20014;-35
2022/06/28 01:23:49;;;;;;;12.15;2.10;;;;;;;13.69;94.90;101985.09;4995885;28;20169;-36
2022/06/28 01:26:19;;;;;;;6.57;1.70;;;;;;;13.67;95.34;101997.47;4996643;28;20109;-36
2022/06/28 01:28:45;;;;;;;10.13;1.80;;;;;;;13.63;95.32;101999.59;4995382;28;20484;-36
2022/06/28 01:31:11;;;;;;;11.43;1.88;;;;;;;13.63;95.70;101998.81;4995200;28;20041;-35
2022/06/28 01:33:38;;;;;;;10.02;2.60;;;;;;;13.65;95.33;102000.25;4996555;28;20038;-36
2022/06/28 01:36:04;;;;;;;9.65;2.15;;;;;;;13.64;95.76;102003.84;4996822;28;20030;-35
2022/06/28 01:38:30;;;;;;;9.60;2.53;;;;;;;13.63;95.41;101998.81;4996361;28;20034;-35
2022/06/28 01:40:56;;;;;;;9.98;1.90;;;;;;;13.63;95.17;102001.41;4996918;28;20429;-36
2022/06/28 01:43:22;;;;;;;9.95;1.92;;;;;;;13.64;95.79;101998.63;4996628;28;20030;-37
2022/06/28 01:45:49;;;;;;;5.68;1.63;;;;;;;13.57;96.07;102000.31;4996903;28;20433;-35
2022/06/28 01:48:18;;;;;;;9.13;1.70;;;;;;;13.50;96.53;101996.81;4995563;28;20062;-35
2022/06/28 01:50:44;;;;;;;9.45;2.10;;;;;;;13.39;96.93;101997.25;4996373;28;20034;-35
2022/06/28 01:53:09;;;;;;;9.13;1.80;;;;;;;13.43;96.85;102004.50;4996675;28;20061;-34
2022/06/28 01:55:34;;;;;;;10.80;2.28;;;;;;;13.37;97.66;102005.19;4996153;28;20045;-35
2022/06/28 01:58:00;;;;;;;7.15;1.73;;;;;;;13.29;97.76;102006.09;4996097;28;20026;-35
2022/06/28 02:00:26;;;;;;;10.35;1.73;;;;;;;13.23;97.83;102006.72;4996108;28;20461;-35
2022/06/28 02:02:51;;;;;;;10.38;1.98;;;;;;;13.22;98.74;102001.72;4996583;28;20037;-35
2022/06/28 02:05:17;;;;;;;6.75;2.15;;;;;;;13.15;98.61;102006.81;4994735;28;20026;-36
2022/06/28 02:07:47;;;;;;;9.88;2.45;;;;;;;13.21;99.11;102005.31;4995913;28;20130;-36
2022/06/28 02:10:12;;;;;;;8.50;1.90;;;;;;;13.19;98.71;102002.09;4995815;28;20034;-36
2022/06/28 02:12:38;;;;;;;8.60;1.98;;;;;;;13.10;98.59;102009.94;4996025;28;20416;-35
2022/06/28 02:15:03;;;;;;;6.80;1.90;;;;;;;13.19;99.03;102013.25;4995816;28;20490;-37
2022/06/28 02:17:29;;;;;;;9.65;1.83;;;;;;;13.17;99.11;102010.03;4995650;28;20037;-36
2022/06/28 02:19:54;;;;;;;7.60;1.83;;;;;;;13.22;98.70;102001.72;4994602;28;20030;-36
2022/06/28 02:22:20;;;;;;;12.20;2.10;;;;;;;13.18;98.36;102006.47;4995870;28;20100;-36
2022/06/28 02:24:45;;;;;;;8.35;1.60;;;;;;;13.21;98.34;102016.50;4995917;28;20466;-36
2022/06/28 02:27:10;;;;;;;10.77;2.10;;;;;;;13.25;97.79;102016.97;4995827;28;20030;-36
2022/06/28 02:29:36;;;;;;;6.75;1.75;;;;;;;13.23;97.85;102008.53;4995765;28;20061;-36
2022/06/28 02:32:01;;;;;;;8.32;1.65;;;;;;;13.18;98.46;102010.88;4995354;28;20536;-36
2022/06/28 02:42:38;;;;;;;9.75;1.77;;;;;;;13.13;98.51;102021.75;4995772;28;20041;-36
2022/06/28 02:45:04;;;;;;;12.50;2.15;;;;;;;13.04;98.54;102015.00;4995333;28;20026;-36
2022/06/28 02:47:29;;;;;;;11.75;1.95;;;;;;;13.05;98.15;102019.22;4995167;28;20022;-35
2022/06/28 02:49:54;;;;;;;9.00;2.00;;;;;;;13.10;97.94;102024.69;4994882;28;20057;-35
2022/06/28 02:52:20;;;;;;;10.68;2.10;;;;;;;13.17;97.95;102027.41;4995673;28;20034;-36
2022/06/28 02:54:45;;;;;;;10.50;1.83;;;;;;;13.10;97.74;102033.28;4995494;28;20022;-36
2022/06/28 02:57:10;;;;;;;9.32;1.92;;;;;;;13.17;98.25;102033.38;4995298;28;20393;-36
2022/06/28 02:59:36;;;;;;;5.30;1.42;;;;;;;13.22;97.18;102038.06;4995199;28;20112;-36
2022/06/28 03:02:01;;;;;;;9.63;1.70;;;;;;;13.20;96.43;102038.22;4994843;28;20465;-36
2022/06/28 03:04:26;;;;;;;6.22;1.77;;;;;;;13.17;95.92;102035.19;4994767;28;20026;-36
2022/06/28 03:06:52;;;;;;;8.38;1.63;;;;;;;13.13;95.49;102039.13;4994781;28;20030;-36
2022/06/28 03:09:17;;;;;;;9.02;1.70;;;;;;;13.09;95.98;102041.25;4994987;28;20034;-35
2022/06/28 03:11:42;;;;;;;6.10;1.58;;;;;;;13.12;96.18;102040.91;4994671;28;20459;-35
2022/06/28 03:14:08;;;;;;;6.65;1.80;;;;;;;12.94;97.48;102048.94;4995010;28;20213;-36
2022/06/28 03:16:33;;;;;;;10.30;1.88;;;;;;;12.98;97.55;102044.25;4994852;28;20057;-35
2022/06/28 03:18:59;;;;;;;5.15;1.30;;;;;;;12.91;98.19;102045.91;4994676;28;20448;-36
2022/06/28 03:21:24;;;;;;;13.50;1.83;;;;;;;12.94;97.63;102050.75;4994898;28;20061;-36
2022/06/28 03:23:49;;;;;;;11.05;1.85;;;;;;;12.92;96.85;102055.28;4994734;28;20425;-36
2022/06/28 03:26:15;;;;;;;10.10;1.80;;;;;;;12.86;96.91;102057.59;4994522;28;20026;-36
2022/06/28 03:28:40;;;;;;;6.45;1.80;;;;;;;12.95;97.14;102060.97;4994900;28;20040;-36
2022/06/28 03:31:05;;;;;;;15.07;2.17;;;;;;;12.93;97.06;102062.91;4993988;28;20080;-37
2022/06/28 03:33:31;;;;;;;7.75;1.63;;;;;;;12.98;97.27;102063.22;4994657;28;20065;-36
2022/06/28 03:35:56;;;;;;;11.27;1.83;;;;;;;12.99;96.91;102066.59;4994406;28;20030;-36
2022/06/28 03:38:22;;;;;;;10.05;2.08;;;;;;;13.10;96.69;102071.41;4993315;28;20026;-36
2022/06/28 03:40:47;;;;;;;7.68;1.80;;;;;;;13.13;96.50;102067.66;4994157;28;20061;-36
2022/06/28 03:43:12;;;;;;;10.43;1.90;;;;;;;13.16;96.38;102067.31;4994538;28;20034;-36
2022/06/28 03:45:38;;;;;;;5.95;1.67;;;;;;;13.14;95.90;102074.47;4994543;28;20061;-35
2022/06/28 03:48:03;;;;;;;6.95;1.83;;;;;;;13.13;95.36;102076.25;4994260;28;20436;-35
2022/06/28 03:50:29;;;;;;;7.32;1.70;;;;;;;13.15;95.38;102076.91;4994319;28;20077;-36
2022/06/28 03:52:54;;;;;;;11.20;2.38;;;;;;;13.13;95.37;102073.66;4994170;28;20499;-36
2022/06/28 03:55:19;;;;;;;8.45;1.73;;;;;;;13.09;95.16;102082.78;4994107;28;20032;-37
2022/06/28 03:57:45;;;;;;;8.60;1.73;;;;;;;13.01;95.78;102086.22;4995084;28;20036;-36
2022/06/28 04:00:11;;;;;;;9.43;2.17;;;;;;;13.02;95.66;102081.84;4994333;28;20022;-35
2022/06/28 04:02:36;;;;;;;6.97;1.70;;;;;;;12.93;95.87;102077.69;4994293;28;20093;-35
2022/06/28 04:05:01;;;;;;;6.50;1.90;;;;;;;12.91;96.12;102082.22;4994293;28;20018;-35
2022/06/28 04:07:27;;;;;;;7.05;1.80;;;;;;;12.93;95.92;102086.25;4994282;28;20033;-36
2022/06/28 04:09:52;;;;;;;10.35;2.20;;;;;;;13.00;95.68;102089.78;4994188;28;20028;-35
2022/06/28 04:12:18;;;;;;;7.88;1.88;;;;;;;12.99;95.27;102095.16;4993825;28;20355;-36
2022/06/28 04:14:43;;;;;;;6.57;1.73;;;;;;;13.00;95.03;102092.38;4994283;28;20421;-36
2022/06/28 04:17:08;;;;;;;6.80;2.05;;;;;;;13.07;94.79;102095.91;4994514;28;20422;-36
2022/06/28 04:19:34;;;;;;;8.95;1.98;;;;;;;13.15;94.64;102094.22;4993876;28;20469;-35
2022/06/28 04:22:00;;;;;;;9.25;1.60;;;;;;;13.22;93.83;102090.78;4993951;28;20053;-35
2022/06/28 04:24:25;;;;;;;10.95;1.90;;;;;;;13.18;93.95;102093.91;4993706;28;20025;-35
2022/06/28 04:26:52;;;;;;;8.80;1.75;;;;;;;13.20;93.75;102099.72;4994379;28;20034;-37
2022/06/28 04:29:17;;;;;;;5.53;1.65;;;;;;;13.18;93.94;102105.09;4994106;28;20042;-35
2022/06/28 04:31:43;;;;;;;10.60;2.00;;;;;;;13.27;93.87;102104.09;4994230;28;20062;-35
2022/06/28 04:34:08;;;;;;;10.55;1.90;;;;;;;13.41;93.34;102089.56;4993820;28;20061;-36
2022/06/28 04:36:34;;;;;;;5.32;1.67;;;;;;;13.51;92.27;102097.91;4993632;28;20033;-36
2022/06/28 04:38:59;;;;;;;7.75;1.65;;;;;;;13.56;92.29;102096.59;4993042;28;20034;-36
2022/06/28 04:41:25;;;;;;;9.95;2.00;;;;;;;13.54;92.83;102088.97;4992366;28;20164;-36
2022/06/28 04:43:53;;;;;;;10.65;1.73;;;;;;;13.62;91.88;102086.31;4994637;28;20026;-36
2022/06/28 04:46:19;;;;;;;8.57;1.80;;;;;;;13.78;92.13;102087.94;4996521;28;20033;-36
2022/06/28 04:48:44;;;;;;;8.75;1.73;;;;;;;13.96;91.02;102090.25;4997290;28;20077;-36
2022/06/28 04:51:13;;;;;;;10.43;1.95;;;;;;;14.01;90.41;102095.69;4997498;28;20042;-36
2022/06/28 04:53:42;;;;;;;7.85;1.80;;;;;;;14.08;89.94;102101.81;4997568;28;20054;-36
2022/06/28 04:56:09;;;;;;;9.77;1.75;;;;;;;14.13;89.87;102104.69;4997469;28;20026;-36
2022/06/28 04:58:35;;;;;;;8.20;2.00;;;;;;;14.17;89.60;102108.53;4997148;28;20029;-36
2022/06/28 05:01:00;;;;;;;14.10;2.58;;;;;;;14.21;89.65;102106.38;4997159;28;20058;-36
2022/06/28 05:03:26;;;;;;;8.43;1.98;;;;;;;14.10;90.25;102109.44;4997051;28;20022;-36
2022/06/28 05:05:51;;;;;;;10.35;2.08;;;;;;;14.19;90.01;102105.78;4996978;28;20058;-37
2022/06/28 05:08:16;;;;;;;6.63;1.60;;;;;;;14.19;90.11;102103.97;4996985;28;20478;-35
2022/06/28 05:10:42;;;;;;;12.80;1.90;;;;;;;14.25;90.29;102109.47;4997242;28;20029;-36
2022/06/28 05:13:07;;;;;;;10.40;1.98;;;;;;;14.34;89.19;102105.78;4996974;28;20081;-36
2022/06/28 05:15:32;;;;;;;10.05;2.30;;;;;;;14.37;88.52;102108.81;4996938;28;20076;-35
2022/06/28 05:17:58;;;;;;;8.65;2.30;;;;;;;14.74;87.74;102107.13;4996850;28;20026;-36
2022/06/28 05:20:23;;;;;;;11.77;2.22;;;;;;;14.63;87.45;102105.78;4997102;28;20022;-35
2022/06/28 05:22:48;;;;;;;14.82;1.90;;;;;;;14.65;87.98;102105.63;4996797;28;20037;-36
2022/06/28 05:25:14;;;;;;;16.55;4.70;;;;;;;14.69;87.79;102104.25;4996993;28;20022;-36
2022/06/28 05:27:39;;;;;;;12.10;2.53;;;;;;;14.60;87.79;102094.94;4996921;28;20037;-36
2022/06/28 05:30:05;;;;;;;11.07;2.47;;;;;;;14.82;87.58;102108.81;4996409;28;20026;-36
2022/06/28 05:32:30;;;;;;;12.02;2.33;;;;;;;15.92;82.78;102105.06;4996623;28;20041;-34
2022/06/28 05:34:55;;;;;;;8.98;2.20;;;;;;;19.04;71.00;102107.91;4997060;28;20031;-36
2022/06/28 05:37:21;;;;;;;13.02;2.33;;;;;;;21.93;59.38;102105.94;4996993;28;20026;-36
2022/06/28 05:39:46;;;;;;;13.20;2.10;;;;;;;25.49;47.55;102094.59;4995148;28;20037;-36
2022/06/28 05:42:12;;;;;;;10.68;2.15;;;;;;;26.34;44.71;102092.63;4996321;28;20354;-37
2022/06/28 05:44:37;;;;;;;12.27;2.28;;;;;;;26.81;43.60;102104.13;4996659;28;20050;-39
2022/06/28 05:47:03;;;;;;;9.50;2.22;;;;;;;26.61;43.88;102094.31;4997107;28;20105;-37
2022/06/28 05:49:28;;;;;;;18.20;2.50;;;;;;;26.14;45.11;102100.53;4996157;28;20047;-36
2022/06/28 05:51:53;;;;;;;12.77;2.57;;;;;;;26.48;43.88;102096.38;4995605;28;20450;-36
2022/06/28 05:54:19;;;;;;;9.60;2.25;;;;;;;27.83;41.46;102096.88;4996268;28;20261;-36
2022/06/28 05:56:44;;;;;;;10.40;2.22;;;;;;;28.15;39.12;102093.00;4996631;28;20022;-36
2022/06/28 05:59:09;;;;;;;9.75;2.30;;;;;;;27.80;41.33;102086.00;4996078;28;20035;-35
2022/06/28 06:01:35;;;;;;;16.67;2.63;;;;;;;27.35;41.77;102091.13;4994755;28;20018;-35
2022/06/28 06:04:00;;;;;;;17.02;2.70;;;;;;;27.21;42.49;102090.88;4996145;28;20049;-37
2022/06/28 06:06:25;;;;;;;13.05;2.35;;;;;;;28.31;39.43;102083.91;4995918;28;20041;-35
2022/06/28 06:08:51;;;;;;;17.75;2.70;;;;;;;27.92;39.88;102085.69;4995934;28;20477;-35
2022/06/28 06:11:17;;;;;;;10.98;2.70;;;;;;;27.65;40.87;102089.50;4995768;28;20030;-36
2022/06/28 06:13:42;;;;;;;17.42;3.00;;;;;;;27.16;43.02;102085.59;4995694;28;20366;-36
2022/06/28 06:16:08;;;;;;;12.02;2.75;;;;;;;28.00;39.96;102095.75;4995142;28;20443;-36
2022/06/28 06:18:33;;;;;;;15.48;2.50;;;;;;;27.41;40.80;102095.38;4993552;28;20026;-36
2022/06/28 06:20:58;;;;;;;15.85;3.08;;;;;;;28.62;38.96;102089.03;4995425;28;20022;-36
2022/06/28 06:23:24;;;;;;;11.15;2.70;;;;;;;28.26;39.77;102089.25;4995402;28;20034;-37
2022/06/28 06:25:49;;;;;;;11.18;3.05;;;;;;;28.96;38.69;102086.34;4995696;28;20053;-35
2022/06/28 06:28:15;;;;;;;16.45;2.80;;;;;;;28.39;40.10;102087.81;4996010;28;20527;-36
2022/06/28 06:30:41;;;;;;;16.65;3.25;;;;;;;28.35;40.18;102086.78;4995297;28;20084;-36
2022/06/28 06:33:06;;;;;;;20.00;3.88;;;;;;;27.62;41.23;102100.63;4995685;28;20022;-36
2022/06/28 06:35:32;;;;;;;12.48;2.60;;;;;;;28.28;40.25;102099.56;4995737;28;20084;-36
2022/06/28 06:38:00;;;;;;;14.88;2.70;;;;;;;27.20;41.38;102107.09;4995420;28;20596;-36
2022/06/28 06:40:27;;;;;;;16.08;2.55;;;;;;;24.83;46.91;102100.16;4995228;28;20029;-36
2022/06/28 06:42:52;;;;;;;18.52;2.75;;;;;;;22.75;53.72;102097.81;4995450;28;20037;-36
2022/06/28 06:45:17;;;;;;;19.88;3.10;;;;;;;22.34;55.68;102107.59;4995611;28;20381;-37
2022/06/28 06:47:43;;;;;;;16.45;2.80;;;;;;;21.96;57.27;102101.00;4994926;28;20042;-36
2022/06/28 06:50:08;;;;;;;14.30;2.92;;;;;;;21.35;59.46;102112.75;4993601;28;20056;-37
2022/06/28 06:52:35;;;;;;;15.70;3.13;;;;;;;21.00;60.41;102110.81;4994273;28;20089;-36
2022/06/28 06:55:01;;;;;;;17.02;3.33;;;;;;;21.40;59.85;102108.44;4994390;28;20381;-37
2022/06/28 06:57:26;;;;;;;13.88;2.70;;;;;;;21.10;60.11;102113.72;4994967;28;20081;-34
2022/06/28 06:59:51;;;;;;;15.82;3.13;;;;;;;21.47;58.95;102108.34;4994778;28;20358;-36
2022/06/28 07:02:17;;;;;;;13.38;3.30;;;;;;;21.75;58.74;102109.47;4994793;28;20549;-36
2022/06/28 07:04:42;;;;;;;21.23;3.35;;;;;;;21.31;58.98;102108.97;4994846;28;20026;-36
2022/06/28 07:07:07;;;;;;;18.75;3.05;;;;;;;21.21;60.29;102108.72;4994380;28;20412;-35
2022/06/28 07:09:33;;;;;;;14.13;3.00;;;;;;;21.12;60.05;102111.69;4995265;28;20033;-36
2022/06/28 07:11:59;;;;;;;21.08;3.40;;;;;;;21.74;59.90;102119.19;4993353;28;20034;-36
2022/06/28 07:14:24;;;;;;;13.27;2.92;;;;;;;21.90;59.72;102104.56;4993350;28;20037;-36
2022/06/28 07:17:03;;;;;;;19.80;3.45;;;;;;;22.36;57.23;102116.06;4994743;28;20034;-36
2022/06/28 07:19:28;;;;;;;14.23;3.10;;;;;;;22.29;56.54;102116.19;4993751;28;20014;-36
2022/06/28 07:21:53;;;;;;;12.63;3.22;;;;;;;22.33;58.55;102115.72;4994554;28;20573;-37
2022/06/28 07:24:19;;;;;;;18.23;3.67;;;;;;;21.82;58.17;102112.81;4994947;28;20049;-38
2022/06/28 07:26:44;;;;;;;13.73;3.00;;;;;;;22.11;57.69;102115.53;4994217;28;20059;-36
2022/06/28 07:29:10;;;;;;;16.02;3.13;;;;;;;21.13;58.56;102115.09;4994598;28;20033;-35
2022/06/28 07:31:36;;;;;;;19.95;3.03;;;;;;;22.04;57.37;102116.44;4994290;28;20018;-35
2022/06/28 07:34:01;;;;;;;16.27;2.72;;;;;;;21.79;57.66;102118.53;4994294;28;20045;-35
2022/06/28 07:36:27;;;;;;;15.00;3.03;;;;;;;20.32;61.62;102122.38;4994508;28;20026;-35
2022/06/28 07:38:55;;;;;;;16.38;3.22;;;;;;;21.23;58.71;102119.81;4994350;28;20113;-34
2022/06/28 07:41:22;;;;;;;26.63;3.33;;;;;;;20.43;60.05;102123.50;4994373;28;20018;-36
2022/06/28 07:43:50;;;;;;;17.38;3.08;;;;;;;21.30;59.11;102117.88;4995002;28;20062;-36
2022/06/28 07:46:16;;;;;;;17.30;3.15;;;;;;;21.38;58.22;102117.59;4994832;28;20022;-36
2022/06/28 07:48:41;;;;;;;13.57;2.78;;;;;;;20.66;57.77;102123.63;4994109;28;20100;-36
2022/06/28 07:53:51;;;;;;;12.13;2.47;;;;;;;19.89;58.26;102114.56;4994009;28;20119;-36
2022/06/28 07:56:16;;;;;;;15.07;2.70;;;;;;;20.78;57.02;102104.50;4994067;28;20054;-35
2022/06/28 07:58:42;;;;;;;8.07;2.25;;;;;;;21.87;53.11;102107.66;4993644;28;20050;-36
2022/06/28 08:01:08;;;;;;;16.27;2.65;;;;;;;21.94;52.25;102107.53;4993458;28;20480;-36
2022/06/28 08:03:33;;;;;;;8.68;2.15;;;;;;;22.46;51.00;102110.97;4993680;28;20018;-36
2022/06/28 08:05:58;;;;;;;12.18;2.22;;;;;;;22.19;49.92;102108.09;4994103;28;20389;-36
2022/06/28 08:08:24;;;;;;;10.68;2.13;;;;;;;22.18;50.74;102100.41;4994086;28;20063;-36
2022/06/28 08:10:49;;;;;;;13.40;2.35;;;;;;;22.65;47.98;102103.72;4992449;28;20367;-36
2022/06/28 08:13:16;;;;;;;13.35;2.30;;;;;;;22.61;47.80;102099.94;4993194;28;20026;-36
2022/06/28 08:15:41;;;;;;;14.85;2.90;;;;;;;23.39;47.24;102106.31;4993300;28;20028;-36
2022/06/28 08:18:07;;;;;;;11.93;3.03;;;;;;;22.97;47.83;102106.69;4995175;28;20026;-35
2022/06/28 08:20:32;;;;;;;11.15;1.90;;;;;;;22.87;47.14;102101.22;4998090;28;20029;-36
2022/06/28 08:22:57;;;;;;;10.48;1.95;;;;;;;22.22;47.26;102110.25;4997972;28;20022;-35
2022/06/28 08:25:23;;;;;;;10.48;2.33;;;;;;;21.71;47.47;102106.50;4998094;28;20049;-35
2022/06/28 08:27:48;;;;;;;12.82;2.40;;;;;;;21.24;48.66;102108.28;4996779;28;20314;-35
2022/06/28 08:30:14;;;;;;;13.60;2.20;;;;;;;20.60;49.88;102106.13;4997252;28;20173;-37
2022/06/28 08:32:39;;;;;;;11.13;2.35;;;;;;;21.06;50.68;102114.38;4997565;28;20022;-35
2022/06/28 08:35:05;;;;;;;15.13;2.40;;;;;;;22.39;47.83;102112.97;4996782;28;20105;-35
2022/06/28 08:37:30;;;;;;;8.25;1.95;;;;;;;22.96;48.05;102107.72;4997956;28;20026;-35
2022/06/28 08:39:55;;;;;;;9.40;2.05;;;;;;;22.86;47.55;102107.50;4997210;28;20026;-36
2022/06/28 08:42:26;;;;;;;12.98;2.33;;;;;;;22.56;46.34;102104.31;4997320;28;20023;-35
2022/06/28 08:44:52;;;;;;;11.35;2.65;;;;;;;22.74;47.97;102102.28;4997638;28;20026;-36
2022/06/28 08:47:20;;;;;;;10.35;2.28;;;;;;;22.79;46.43;102098.13;4997936;28;20057;-37
2022/06/28 08:49:56;;;;;;;8.32;2.08;;;;;;;22.35;47.09;102105.75;4996126;28;20050;-37
2022/06/28 08:52:23;;;;;;;12.23;2.17;;;;;;;22.80;46.69;102107.66;4997506;28;20026;-36
2022/06/28 08:54:50;;;;;;;11.00;2.25;;;;;;;22.38;47.29;102100.03;4997798;28;20030;-36
2022/06/28 08:57:18;;;;;;;12.68;2.42;;;;;;;22.08;48.15;102096.53;4997490;28;20484;-36
2022/06/28 08:59:44;;;;;;;8.13;2.22;;;;;;;23.00;47.61;102104.59;4997625;28;20410;-35
2022/06/28 09:02:12;;;;;;;10.52;2.20;;;;;;;23.51;45.82;102097.50;4997300;28;20018;-35
2022/06/28 09:04:39;;;;;;;10.95;2.03;;;;;;;22.44;48.22;102091.19;4996982;28;20026;-37
2022/06/28 09:07:04;;;;;;;13.55;2.22;;;;;;;24.28;47.19;102089.56;4997394;28;20034;-37
2022/06/28 09:09:30;;;;;;;13.48;2.30;;;;;;;24.42;45.20;102087.31;4997040;28;20054;-35
2022/06/28 09:11:55;;;;;;;11.20;2.47;;;;;;;24.15;42.98;102087.28;4997131;28;20080;-35
2022/06/28 09:14:29;;;;;;;10.93;2.28;;;;;;;23.26;46.05;102079.44;4996871;28;20030;-35
2022/06/28 09:16:56;;;;;;;17.35;2.70;;;;;;;22.14;47.33;102080.84;4996750;28;20034;-36
2022/06/28 09:19:35;;;;;;;10.35;2.15;;;;;;;22.24;46.17;102076.59;4995867;28;20022;-36
2022/06/28 09:22:03;;;;;;;10.68;2.45;;;;;;;21.71;49.79;102074.16;4996917;28;20049;-35
2022/06/28 09:24:29;;;;;;;11.30;2.20;;;;;;;20.91;51.16;102078.03;4996982;28;20109;-37
2022/06/28 09:27:00;;;;;;;13.30;2.58;;;;;;;21.56;50.58;102069.34;4996606;28;20551;-36
2022/06/28 09:29:25;;;;;;;10.25;2.30;;;;;;;22.07;49.84;102073.06;4996303;28;20484;-43
2022/06/28 09:31:50;;;;;;;13.38;1.92;;;;;;;21.45;48.84;102075.41;4995175;28;20026;-36
2022/06/28 09:34:16;;;;;;;9.93;2.33;;;;;;;21.44;50.69;102081.69;4996749;28;20018;-37
2022/06/28 09:36:55;;;;;;;14.38;2.55;;;;;;;22.04;49.86;102068.28;4996753;28;20367;-36
2022/06/28 09:39:22;;;;;;;14.25;2.53;;;;;;;23.07;47.82;102069.13;4996371;28;20173;-36
2022/06/28 09:41:50;;;;;;;9.30;2.10;;;;;;;23.86;46.60;102062.91;4996642;28;20057;-36
2022/06/28 09:44:17;;;;;;;10.95;2.40;;;;;;;23.39;46.98;102066.75;4996501;28;20026;-36
2022/06/28 09:46:42;;;;;;;8.27;2.33;;;;;;;22.95;49.19;102069.19;4996566;28;20022;-36
2022/06/28 09:49:08;;;;;;;13.82;2.70;;;;;;;23.03;48.78;102064.59;4996029;28;20038;-35
2022/06/28 09:51:36;;;;;;;10.65;2.42;;;;;;;23.69;48.19;102062.13;4996598;28;20033;-35
2022/06/28 09:54:07;;;;;;;20.50;2.72;;;;;;;23.32;45.18;102070.56;4996132;28;20030;-36
2022/06/28 09:56:35;;;;;;;10.98;2.50;;;;;;;23.24;45.95;102063.84;4996629;28;20492;-36
2022/06/28 09:59:01;;;;;;;10.73;2.40;;;;;;;23.77;44.25;102057.25;4996132;28;20030;-36
2022/06/28 10:01:26;;;;;;;10.25;2.13;;;;;;;23.50;43.65;102051.84;4996538;28;20029;-36
2022/06/28 10:03:53;;;;;;;9.63;1.98;;;;;;;23.22;41.31;102044.03;4996186;28;20465;-37
2022/06/28 10:06:21;;;;;;;10.50;1.95;;;;;;;24.17;43.22;102061.44;4995851;28;20539;-37
2022/06/28 10:08:46;;;;;;;6.78;2.10;;;;;;;24.40;41.32;102052.44;4996023;28;20100;-36
2022/06/28 10:11:12;;;;;;;9.70;2.40;;;;;;;24.85;43.55;102042.56;4995993;28;20026;-36
2022/06/28 10:16:31;;;;;;;9.50;2.42;;;;;;;24.10;44.17;102043.13;4996407;28;20044;-36
2022/06/28 10:18:59;;;;;;;9.80;2.20;;;;;;;24.68;42.28;102046.09;4995622;28;20022;-35
2022/06/28 10:21:51;;;;;;;8.68;2.00;;;;;;;23.10;43.21;102044.13;4995880;28;20028;-36
2022/06/28 10:24:17;;;;;;;9.90;2.10;;;;;;;23.01;43.92;102038.44;4995801;28;20029;-36
2022/06/28 10:26:45;;;;;;;9.48;2.20;;;;;;;23.71;41.77;102041.59;4995728;28;20445;-37
2022/06/28 10:29:11;;;;;;;8.55;1.98;;;;;;;23.65;42.25;102038.88;4996394;28;20106;-37
2022/06/28 10:31:42;;;;;;;10.00;2.20;;;;;;;23.84;42.89;102033.31;4995330;28;20053;-38
2022/06/28 10:34:11;;;;;;;7.43;1.60;;;;;;;24.51;43.38;102033.03;4995100;28;20057;-38
2022/06/28 10:36:55;;;;;;;9.75;2.33;;;;;;;24.07;41.07;102035.69;4995162;28;20022;-35
2022/06/28 10:39:21;;;;;;;7.85;2.05;;;;;;;24.65;41.59;102030.75;4995463;28;20046;-35
2022/06/28 10:42:06;;;;;;;9.15;1.92;;;;;;;24.94;41.27;102041.03;4994674;28;20033;-36
2022/06/28 10:44:31;;;;;;;11.07;2.20;;;;;;;25.46;41.00;102037.69;4995307;28;20040;-37
2022/06/28 10:47:05;;;;;;;11.18;2.50;;;;;;;24.43;40.84;102035.31;4995452;28;20101;-36
2022/06/28 10:49:42;;;;;;;9.25;2.42;;;;;;;24.06;41.61;102031.47;4995032;28;20137;-37
2022/06/28 10:52:12;;;;;;;10.63;2.38;;;;;;;23.39;43.98;102027.19;4995250;28;20034;-37
2022/06/28 10:54:38;;;;;;;14.55;2.55;;;;;;;23.25;43.30;102033.00;4995007;28;20026;-36
2022/06/28 10:57:26;;;;;;;10.50;2.28;;;;;;;24.13;42.08;102027.84;4994984;28;20076;-38
2022/06/28 10:59:55;;;;;;;8.43;2.00;;;;;;;24.25;42.27;102031.91;4995169;28;20041;-37
2022/06/28 11:02:20;;;;;;;12.50;2.08;;;;;;;23.48;43.26;102032.84;4995293;28;20473;-38
2022/06/28 11:05:02;;;;;;;10.98;2.50;;;;;;;23.90;42.51;102015.69;4994826;28;20050;-36
2022/06/28 11:07:31;;;;;;;10.02;2.10;;;;;;;23.89;43.98;102012.25;4994948;28;20409;-36
2022/06/28 11:09:59;;;;;;;9.80;2.17;;;;;;;23.94;42.72;102014.16;4995402;28;20029;-37
2022/06/28 11:12:30;;;;;;;11.48;2.15;;;;;;;23.96;42.31;102006.78;4995053;28;20376;-36
2022/06/28 11:15:01;;;;;;;10.23;1.90;;;;;;;24.57;41.74;101996.06;4994770;28;20466;-37
2022/06/28 11:17:28;;;;;;;6.70;2.25;;;;;;;24.52;40.96;102002.91;4994982;28;20023;-35
2022/06/28 11:20:00;;;;;;;7.60;2.22;;;;;;;24.52;41.04;102000.25;4994661;28;20076;-36
2022/06/28 11:22:45;;;;;;;10.50;2.40;;;;;;;24.30;41.83;102004.78;4994636;28;20025;-36
2022/06/28 11:25:14;;;;;;;8.13;2.00;;;;;;;24.31;40.78;102007.19;4994757;28;20080;-37
2022/06/28 11:27:47;;;;;;;8.50;2.10;;;;;;;24.60;39.87;101995.56;4994517;28;20421;-37
2022/06/28 11:30:14;;;;;;;7.47;2.00;;;;;;;25.21;41.90;101988.91;4994613;28;20031;-36
2022/06/28 11:32:43;;;;;;;9.23;2.10;;;;;;;24.85;39.00;101984.38;4994133;28;20030;-36
2022/06/28 11:35:19;;;;;;;7.68;2.15;;;;;;;24.82;40.00;101990.19;4994161;28;20049;-37